Time;durP1;ratioP1;P1;durP2;ratioP2;P2;SDS_P1;SDS_P2;PMS_P1;PMS_P2;Temp;Humidity;BMP_temperature;BMP_pressure;BME280_temperature;BME280_humidity;BME280_pressure;Samples;Min_cycle;Max_cycle;Signal;HPM_P1;HPM_P2
2023/08/19 00:00:22;;;;;;;7.17;5.27;;;29.90;52.00;;;;;;4998379;28;92800;-59
2023/08/19 00:02:50;;;;;;;6.03;4.67;;;29.90;52.00;;;;;;4997890;28;92896;-59
2023/08/19 00:05:20;;;;;;;9.00;5.70;;;29.90;52.10;;;;;;4997957;28;92922;-60
2023/08/19 00:07:49;;;;;;;8.03;5.67;;;29.90;52.10;;;;;;4998216;28;93465;-59
2023/08/19 00:10:17;;;;;;;6.17;5.30;;;29.90;52.10;;;;;;4997805;28;92742;-59
2023/08/19 00:12:46;;;;;;;9.87;5.40;;;29.90;52.10;;;;;;4998490;28;91950;-59
2023/08/19 00:15:14;;;;;;;6.03;4.87;;;29.90;52.10;;;;;;4997612;28;91979;-59
2023/08/19 00:17:42;;;;;;;6.17;4.80;;;29.80;52.10;;;;;;4997287;28;93032;-59
2023/08/19 00:20:11;;;;;;;6.57;5.00;;;29.90;52.20;;;;;;4998518;28;92933;-59
2023/08/19 00:22:39;;;;;;;7.17;5.50;;;29.80;52.10;;;;;;4998090;28;92051;-59
2023/08/19 00:25:09;;;;;;;5.80;4.47;;;29.80;52.10;;;;;;4998184;28;92003;-59
2023/08/19 00:27:37;;;;;;;5.80;5.00;;;29.80;52.20;;;;;;4997339;28;93893;-59
2023/08/19 00:30:07;;;;;;;6.57;4.50;;;29.80;52.10;;;;;;4997266;28;93523;-59
2023/08/19 00:32:35;;;;;;;5.93;5.20;;;29.80;52.20;;;;;;4997996;28;92057;-59
2023/08/19 00:35:03;;;;;;;8.83;4.83;;;29.90;52.30;;;;;;4997472;28;92052;-59
2023/08/19 00:37:32;;;;;;;6.53;4.37;;;29.80;52.20;;;;;;4997422;28;93146;-59
2023/08/19 00:40:01;;;;;;;8.30;4.43;;;29.80;52.20;;;;;;4997591;28;92841;-59
2023/08/19 00:42:30;;;;;;;6.37;4.80;;;29.80;52.20;;;;;;4998135;28;92073;-60
2023/08/19 00:44:58;;;;;;;7.63;5.07;;;29.90;52.30;;;;;;4998052;28;91345;-59
2023/08/19 00:47:26;;;;;;;6.47;4.70;;;29.90;52.30;;;;;;4997976;28;94036;-59
2023/08/19 00:49:55;;;;;;;7.03;4.73;;;29.90;52.30;;;;;;4997340;28;92808;-59
2023/08/19 00:52:23;;;;;;;5.90;4.47;;;29.90;52.30;;;;;;4997486;28;92969;-59
2023/08/19 00:54:51;;;;;;;7.03;4.07;;;29.80;52.90;;;;;;4997463;28;91943;-60
2023/08/19 00:57:19;;;;;;;5.53;4.10;;;29.90;52.30;;;;;;4997432;28;93117;-59
2023/08/19 00:59:48;;;;;;;7.97;4.70;;;29.90;52.30;;;;;;4997823;28;92765;-59
2023/08/19 01:02:16;;;;;;;5.30;4.00;;;29.90;52.40;;;;;;4997702;28;92335;-59
2023/08/19 01:04:44;;;;;;;8.37;4.20;;;29.90;52.40;;;;;;4996974;28;92196;-59
2023/08/19 01:07:17;;;;;;;6.97;4.30;;;29.90;52.40;;;;;;4997467;28;92899;-59
2023/08/19 01:09:49;;;;;;;5.73;3.80;;;29.90;52.40;;;;;;4997122;28;92541;-59
2023/08/19 01:12:22;;;;;;;6.20;4.90;;;29.90;52.40;;;;;;4997336;28;92050;-59
2023/08/19 01:14:57;;;;;;;6.47;4.67;;;29.80;52.30;;;;;;4997436;28;92034;-59
2023/08/19 01:17:26;;;;;;;4.63;3.90;;;29.80;52.40;;;;;;4995563;28;93919;-60
2023/08/19 01:19:54;;;;;;;6.17;3.60;;;29.90;52.50;;;;;;4997487;28;93690;-59
2023/08/19 01:22:28;;;;;;;4.13;3.50;;;29.80;53.00;;;;;;4997435;28;92143;-59
2023/08/19 01:24:57;;;;;;;6.63;3.77;;;29.80;52.40;;;;;;4997591;28;92090;-59
2023/08/19 01:27:26;;;;;;;6.03;4.47;;;29.80;52.40;;;;;;4997104;28;93129;-59
2023/08/19 01:29:55;;;;;;;5.30;3.60;;;29.80;52.40;;;;;;4996569;28;92093;-59
2023/08/19 01:32:24;;;;;;;4.03;3.40;;;29.80;52.50;;;;;;4997988;28;91943;-59
2023/08/19 01:34:53;;;;;;;4.93;3.70;;;29.80;52.50;;;;;;4997825;28;91423;-59
2023/08/19 01:37:25;;;;;;;4.70;3.90;;;29.80;52.50;;;;;;4997306;28;92726;-59
2023/08/19 01:39:53;;;;;;;3.97;3.07;;;29.80;52.60;;;;;;5000235;28;92665;-59
2023/08/19 01:42:22;;;;;;;4.03;3.37;;;29.80;52.60;;;;;;5000462;28;92858;-59
2023/08/19 01:44:50;;;;;;;5.57;3.73;;;29.80;52.60;;;;;;5000802;28;92090;-59
2023/08/19 01:47:18;;;;;;;4.63;3.77;;;29.80;52.60;;;;;;5000001;28;94291;-59
2023/08/19 01:49:47;;;;;;;5.13;3.77;;;29.80;53.20;;;;;;5000316;28;92730;-59
2023/08/19 01:52:15;;;;;;;5.87;3.60;;;29.80;52.60;;;;;;4999692;28;92007;-59
2023/08/19 01:54:43;;;;;;;5.20;3.43;;;29.80;52.60;;;;;;5000442;28;92069;-59
2023/08/19 01:57:11;;;;;;;4.50;3.60;;;29.80;52.60;;;;;;5000038;28;93107;-59
2023/08/19 01:59:40;;;;;;;4.90;3.30;;;29.80;52.70;;;;;;5000435;28;93280;-59
2023/08/19 02:02:08;;;;;;;5.87;3.17;;;29.80;52.70;;;;;;5000614;28;92008;-59
2023/08/19 02:04:36;;;;;;;4.37;3.83;;;29.70;52.60;;;;;;5000432;28;92050;-59
2023/08/19 02:07:05;;;;;;;4.27;3.10;;;29.80;52.70;;;;;;4999741;28;93820;-59
2023/08/19 02:09:33;;;;;;;5.53;3.40;;;29.70;52.60;;;;;;5000204;28;92471;-59
2023/08/19 02:12:01;;;;;;;5.23;3.40;;;29.80;52.80;;;;;;5000494;28;92081;-59
2023/08/19 02:14:29;;;;;;;3.53;3.00;;;29.80;52.80;;;;;;5000186;28;92133;-60
2023/08/19 02:16:59;;;;;;;4.77;3.63;;;29.80;52.80;;;;;;4999843;28;93075;-59
2023/08/19 02:19:27;;;;;;;3.73;3.20;;;29.80;52.80;;;;;;4999648;28;93851;-59
2023/08/19 02:21:55;;;;;;;4.33;3.13;;;29.80;52.80;;;;;;5000234;28;92080;-59
2023/08/19 02:24:23;;;;;;;4.97;3.73;;;29.80;52.80;;;;;;5000681;28;91251;-60
2023/08/19 02:26:51;;;;;;;4.13;3.33;;;29.80;52.80;;;;;;4999609;28;93083;-59
2023/08/19 02:29:19;;;;;;;4.90;3.67;;;29.80;52.90;;;;;;5000547;28;92746;-59
2023/08/19 02:31:48;;;;;;;3.87;3.37;;;29.80;52.90;;;;;;5000328;28;92925;-59
2023/08/19 02:34:17;;;;;;;3.37;3.07;;;29.80;52.90;;;;;;4999767;28;91955;-59
2023/08/19 02:36:45;;;;;;;2.97;2.60;;;29.80;52.90;;;;;;4999707;28;94230;-59
2023/08/19 02:39:13;;;;;;;4.23;3.50;;;29.80;52.90;;;;;;4999404;28;92773;-59
2023/08/19 02:41:41;;;;;;;5.10;3.40;;;29.80;52.90;;;;;;4999526;28;91898;-59
2023/08/19 02:44:09;;;;;;;4.17;3.07;;;29.80;52.90;;;;;;4999570;28;92087;-59
2023/08/19 02:46:37;;;;;;;3.93;3.20;;;29.80;53.00;;;;;;4999330;28;93271;-60
2023/08/19 02:49:06;;;;;;;4.40;3.57;;;29.80;53.00;;;;;;4999532;28;92892;-59
2023/08/19 02:51:35;;;;;;;3.43;3.07;;;29.80;53.00;;;;;;4999875;28;91935;-59
2023/08/19 02:54:04;;;;;;;4.30;3.23;;;29.80;53.70;;;;;;4998753;28;93498;-59
2023/08/19 02:56:32;;;;;;;3.33;3.03;;;29.80;53.00;;;;;;4998655;28;94075;-59
2023/08/19 02:59:00;;;;;;;4.17;2.83;;;29.80;53.10;;;;;;4999277;28;93700;-59
2023/08/19 03:01:28;;;;;;;4.57;3.03;;;29.80;53.10;;;;;;4999977;28;92087;-59
2023/08/19 03:03:56;;;;;;;4.53;3.40;;;29.80;53.10;;;;;;4999226;28;92096;-59
2023/08/19 03:06:24;;;;;;;4.03;3.20;;;29.80;53.10;;;;;;4998854;28;93093;-59
2023/08/19 03:08:54;;;;;;;3.50;2.50;;;29.70;53.00;;;;;;4999287;28;93055;-59
2023/08/19 03:11:22;;;;;;;4.17;3.00;;;29.70;53.00;;;;;;4999479;28;91954;-59
2023/08/19 03:13:50;;;;;;;5.63;3.30;;;29.80;53.10;;;;;;5000100;28;91426;-59
2023/08/19 03:16:18;;;;;;;3.37;2.77;;;29.80;53.10;;;;;;4998644;28;94479;-59
2023/08/19 03:18:47;;;;;;;3.90;2.83;;;29.70;53.10;;;;;;4999173;28;93820;-60
2023/08/19 03:21:15;;;;;;;4.50;2.90;;;29.70;53.10;;;;;;4999460;28;92880;-59
2023/08/19 03:23:43;;;;;;;3.00;2.70;;;29.70;53.10;;;;;;4999416;28;92068;-59
2023/08/19 03:26:12;;;;;;;4.63;3.30;;;29.70;53.10;;;;;;4998149;28;94024;-59
2023/08/19 03:28:41;;;;;;;3.30;3.00;;;29.70;53.10;;;;;;4998529;28;92806;-59
2023/08/19 03:31:09;;;;;;;3.93;2.90;;;29.70;53.10;;;;;;4999440;28;92134;-60
2023/08/19 03:33:38;;;;;;;4.10;2.87;;;29.70;53.10;;;;;;4998243;28;92142;-59
2023/08/19 03:36:07;;;;;;;3.73;2.90;;;29.70;53.10;;;;;;4999373;28;94261;-59
2023/08/19 03:38:35;;;;;;;3.50;2.60;;;29.70;53.10;;;;;;4999622;28;92548;-59
2023/08/19 03:41:03;;;;;;;3.43;2.83;;;29.70;53.10;;;;;;4998759;28;91966;-60
2023/08/19 03:43:32;;;;;;;4.27;3.13;;;29.70;53.10;;;;;;4998453;28;92094;-59
2023/08/19 03:46:01;;;;;;;3.20;2.87;;;29.70;53.10;;;;;;4997620;28;94009;-59
2023/08/19 03:48:29;;;;;;;4.07;3.30;;;29.70;53.10;;;;;;4998496;28;94845;-59
2023/08/19 03:50:57;;;;;;;4.60;2.93;;;29.70;53.10;;;;;;4999179;28;92058;-59
2023/08/19 03:53:25;;;;;;;5.10;3.13;;;29.70;53.10;;;;;;4998882;28;92040;-59
2023/08/19 03:55:53;;;;;;;3.60;3.10;;;29.70;53.80;;;;;;4998819;28;93093;-60
2023/08/19 03:58:21;;;;;;;2.60;2.40;;;29.70;53.10;;;;;;4998348;28;93711;-59
2023/08/19 04:00:51;;;;;;;3.50;3.03;;;29.70;53.10;;;;;;4998675;28;92057;-59
2023/08/19 04:03:19;;;;;;;3.53;2.87;;;29.70;53.10;;;;;;4998897;28;91294;-60
2023/08/19 04:05:47;;;;;;;4.13;2.90;;;29.70;53.70;;;;;;4998362;28;92913;-59
2023/08/19 04:08:15;;;;;;;4.27;3.17;;;29.70;53.70;;;;;;4997561;28;93930;-59
2023/08/19 04:10:43;;;;;;;3.27;2.50;;;29.70;53.10;;;;;;4998263;28;93112;-59
2023/08/19 04:13:12;;;;;;;5.87;3.10;;;29.70;53.00;;;;;;4998509;28;92283;-59
2023/08/19 04:15:40;;;;;;;3.47;3.17;;;29.70;53.00;;;;;;4998030;28;93129;-59
2023/08/19 04:18:10;;;;;;;3.30;2.77;;;29.70;53.00;;;;;;4997376;28;93957;-59
2023/08/19 04:20:39;;;;;;;4.93;3.23;;;29.70;53.10;;;;;;4998922;28;92039;-59
2023/08/19 04:23:07;;;;;;;4.43;2.90;;;29.70;53.00;;;;;;4998113;28;92088;-60
2023/08/19 04:25:35;;;;;;;4.20;2.60;;;29.70;53.00;;;;;;4998212;28;93026;-59
2023/08/19 04:28:03;;;;;;;4.60;3.07;;;29.70;53.00;;;;;;4987873;28;92746;-59
2023/08/19 04:30:32;;;;;;;4.20;3.33;;;29.70;53.00;;;;;;4978817;28;92124;-59
2023/08/19 04:33:00;;;;;;;4.87;2.83;;;29.70;53.00;;;;;;4977895;28;92096;-59
2023/08/19 04:35:29;;;;;;;2.67;2.43;;;29.70;53.00;;;;;;4977413;28;95482;-59
2023/08/19 04:37:57;;;;;;;3.30;2.87;;;29.70;53.00;;;;;;4977727;28;94778;-59
2023/08/19 04:40:26;;;;;;;2.90;2.60;;;29.70;53.00;;;;;;4977897;28;91785;-59
2023/08/19 04:42:54;;;;;;;5.03;3.77;;;29.70;53.00;;;;;;4977838;28;92115;-59
2023/08/19 04:45:22;;;;;;;4.40;2.90;;;29.70;53.00;;;;;;4977354;28;93186;-59
2023/08/19 04:47:50;;;;;;;3.67;3.13;;;29.70;53.00;;;;;;4978195;28;92969;-59
2023/08/19 04:50:21;;;;;;;4.13;3.17;;;29.70;53.00;;;;;;4978835;28;91982;-59
2023/08/19 04:52:51;;;;;;;5.97;2.70;;;29.70;53.00;;;;;;4977449;28;91225;-59
2023/08/19 04:55:19;;;;;;;4.73;3.07;;;29.70;53.00;;;;;;4976998;28;91940;-59
2023/08/19 04:57:47;;;;;;;3.67;2.93;;;29.70;53.00;;;;;;4977617;28;93528;-59
2023/08/19 05:00:16;;;;;;;4.63;3.20;;;29.70;53.00;;;;;;4977372;28;92823;-59
2023/08/19 05:02:44;;;;;;;5.07;3.23;;;29.70;53.00;;;;;;4977555;28;92177;-59
2023/08/19 05:05:12;;;;;;;3.17;2.87;;;29.70;53.00;;;;;;4976965;28;93216;-59
2023/08/19 05:07:40;;;;;;;3.37;3.00;;;29.70;53.00;;;;;;4977282;28;92681;-59
2023/08/19 05:10:10;;;;;;;5.77;2.80;;;29.70;53.10;;;;;;4977645;28;92081;-60
2023/08/19 05:12:38;;;;;;;3.47;2.63;;;29.70;53.00;;;;;;4978083;28;92117;-59
2023/08/19 05:15:07;;;;;;;3.03;2.50;;;29.70;53.00;;;;;;4978030;28;93887;-59
2023/08/19 05:17:36;;;;;;;3.20;2.90;;;29.70;53.00;;;;;;4977414;28;92708;-59
2023/08/19 05:20:05;;;;;;;3.50;3.03;;;29.70;53.70;;;;;;4977507;28;92033;-59
2023/08/19 05:22:33;;;;;;;3.63;3.33;;;29.70;53.00;;;;;;4977214;28;92525;-59
2023/08/19 05:25:02;;;;;;;3.27;2.97;;;29.70;53.00;;;;;;4976392;28;94000;-59
2023/08/19 05:27:32;;;;;;;3.37;2.83;;;29.70;53.00;;;;;;4977143;28;93849;-59
2023/08/19 05:30:00;;;;;;;2.83;2.40;;;29.70;53.00;;;;;;4977745;28;91976;-59
2023/08/19 05:32:29;;;;;;;3.13;2.70;;;29.70;53.00;;;;;;4977105;28;92052;-59
2023/08/19 05:34:57;;;;;;;3.37;2.80;;;29.70;53.00;;;;;;4977157;28;94265;-59
2023/08/19 05:37:25;;;;;;;4.57;3.20;;;29.70;53.00;;;;;;4976959;28;93074;-59
2023/08/19 05:39:53;;;;;;;4.50;3.00;;;29.70;53.00;;;;;;4977691;28;91985;-59
2023/08/19 05:42:21;;;;;;;3.60;2.73;;;29.70;53.00;;;;;;4976919;28;91279;-59
2023/08/19 05:44:50;;;;;;;5.50;2.90;;;29.70;53.00;;;;;;4976912;28;93048;-59
2023/08/19 05:47:18;;;;;;;2.87;2.47;;;29.70;53.00;;;;;;4976503;28;93820;-59
2023/08/19 05:49:47;;;;;;;3.67;2.90;;;29.70;52.90;;;;;;4976742;28;92961;-59
2023/08/19 05:52:15;;;;;;;3.53;3.23;;;29.70;52.90;;;;;;4976924;28;91970;-59
2023/08/19 05:54:43;;;;;;;3.87;2.60;;;29.70;53.50;;;;;;4977188;28;93092;-59
2023/08/19 05:57:11;;;;;;;2.73;2.53;;;29.70;52.90;;;;;;4976458;28;93723;-59
2023/08/19 05:59:39;;;;;;;3.00;2.70;;;29.70;52.90;;;;;;4977627;28;92155;-59
2023/08/19 06:02:08;;;;;;;3.40;3.07;;;29.70;53.40;;;;;;4976860;28;92045;-59
2023/08/19 06:04:37;;;;;;;3.93;3.07;;;29.70;52.80;;;;;;4976790;28;93345;-60
2023/08/19 06:07:05;;;;;;;4.73;3.27;;;29.80;52.80;;;;;;4977340;28;92802;-59
2023/08/19 06:09:33;;;;;;;3.53;2.93;;;29.80;52.80;;;;;;4977489;28;91966;-59
2023/08/19 06:12:02;;;;;;;3.43;2.70;;;29.80;52.70;;;;;;4977027;28;92146;-59
2023/08/19 06:14:30;;;;;;;2.90;2.60;;;29.80;52.70;;;;;;4976481;28;95035;-59
2023/08/19 06:16:58;;;;;;;4.63;3.13;;;29.90;52.80;;;;;;4976461;28;93855;-59
2023/08/19 06:19:27;;;;;;;4.77;2.87;;;29.90;52.80;;;;;;4977573;28;91902;-59
2023/08/19 06:21:55;;;;;;;2.93;2.73;;;29.90;52.70;;;;;;4977595;28;92172;-59
2023/08/19 06:24:23;;;;;;;4.03;2.70;;;29.90;53.40;;;;;;4976919;28;94335;-60
2023/08/19 06:26:51;;;;;;;3.53;2.77;;;29.80;52.60;;;;;;4979729;28;93971;-59
2023/08/19 06:29:19;;;;;;;3.97;2.87;;;29.80;52.60;;;;;;4981003;28;92053;-59
2023/08/19 06:31:48;;;;;;;3.63;2.87;;;29.80;52.70;;;;;;4981051;28;91326;-59
2023/08/19 06:34:17;;;;;;;4.33;2.40;;;29.80;52.70;;;;;;4979772;28;94261;-59
2023/08/19 06:36:46;;;;;;;3.03;2.50;;;29.80;52.70;;;;;;4979581;28;92740;-59
2023/08/19 06:39:19;;;;;;;3.37;2.80;;;29.80;52.70;;;;;;4978313;28;93067;-59
2023/08/19 06:41:47;;;;;;;4.80;2.77;;;29.80;52.70;;;;;;4977222;28;92345;-59
2023/08/19 06:44:15;;;;;;;3.60;2.80;;;29.80;52.80;;;;;;4976925;28;93061;-59
2023/08/19 06:46:43;;;;;;;3.10;2.80;;;29.80;52.70;;;;;;4976556;28;92796;-59
2023/08/19 06:49:12;;;;;;;3.37;2.90;;;29.80;52.80;;;;;;4977056;28;92012;-59
2023/08/19 06:51:41;;;;;;;4.93;3.00;;;29.80;52.80;;;;;;4976952;28;92267;-59
2023/08/19 06:54:11;;;;;;;4.63;3.33;;;29.80;52.70;;;;;;4977129;28;93077;-59
2023/08/19 06:56:43;;;;;;;4.17;2.80;;;29.80;52.70;;;;;;4977835;28;93883;-59
2023/08/19 06:59:13;;;;;;;5.50;2.90;;;29.80;52.80;;;;;;4977586;28;91996;-59
2023/08/19 07:01:41;;;;;;;3.37;3.00;;;29.80;52.70;;;;;;4976564;28;92145;-59
2023/08/19 07:04:10;;;;;;;5.00;2.93;;;29.80;52.70;;;;;;4975515;28;95064;-59
2023/08/19 07:06:38;;;;;;;3.60;3.03;;;29.80;52.70;;;;;;4975953;28;94045;-59
2023/08/19 07:09:06;;;;;;;3.17;2.40;;;29.80;52.70;;;;;;4976729;28;92115;-59
2023/08/19 07:11:37;;;;;;;5.57;3.27;;;29.80;52.70;;;;;;4989809;28;92304;-59
2023/08/19 07:14:06;;;;;;;2.97;2.67;;;29.80;52.60;;;;;;4995414;28;92143;-59
2023/08/19 07:16:34;;;;;;;3.00;2.73;;;29.80;52.60;;;;;;4995996;28;92845;-59
2023/08/19 07:19:03;;;;;;;3.57;3.03;;;29.80;52.70;;;;;;4996272;28;92150;-59
2023/08/19 07:21:31;;;;;;;3.67;2.70;;;29.80;52.60;;;;;;4997053;28;91420;-59
2023/08/19 07:24:00;;;;;;;4.43;2.97;;;29.80;52.60;;;;;;4995972;28;92973;-59
2023/08/19 07:26:28;;;;;;;4.30;3.37;;;29.80;52.60;;;;;;4989888;28;92765;-59
2023/08/19 07:28:59;;;;;;;3.60;2.30;;;29.80;52.50;;;;;;4992695;28;93525;-59
2023/08/19 07:31:28;;;;;;;5.00;2.87;;;29.80;52.50;;;;;;4996153;28;92552;-59
2023/08/19 07:33:56;;;;;;;3.27;2.60;;;29.90;52.60;;;;;;4996438;28;94210;-59
2023/08/19 07:36:24;;;;;;;2.53;2.33;;;29.80;52.50;;;;;;4994763;28;93956;-59
2023/08/19 07:38:52;;;;;;;3.27;2.77;;;29.80;52.50;;;;;;4996095;28;92704;-59
2023/08/19 07:41:21;;;;;;;2.87;2.60;;;29.90;52.60;;;;;;4995849;28;92142;-59
2023/08/19 07:43:49;;;;;;;3.47;2.83;;;29.90;52.60;;;;;;4995638;28;94330;-59
2023/08/19 07:46:18;;;;;;;3.40;2.53;;;29.90;52.60;;;;;;4996193;28;93364;-59
2023/08/19 07:48:46;;;;;;;3.07;2.77;;;29.90;52.60;;;;;;4996553;28;92101;-59
2023/08/19 07:51:14;;;;;;;5.20;3.47;;;29.90;52.60;;;;;;4995246;28;92156;-59
2023/08/19 07:53:42;;;;;;;3.37;2.90;;;29.90;52.50;;;;;;4995321;28;93239;-59
2023/08/19 07:56:10;;;;;;;3.00;2.70;;;29.90;52.50;;;;;;4994768;28;94783;-59
2023/08/19 07:58:38;;;;;;;5.30;2.97;;;29.90;52.60;;;;;;4996312;28;92040;-59
2023/08/19 08:01:06;;;;;;;4.43;3.27;;;29.90;52.60;;;;;;4995711;28;92110;-59
2023/08/19 08:03:37;;;;;;;3.00;2.70;;;29.90;52.50;;;;;;4994831;28;94384;-59
2023/08/19 08:06:05;;;;;;;4.77;3.07;;;29.90;52.50;;;;;;4995083;28;92060;-59
2023/08/19 08:08:33;;;;;;;4.27;2.93;;;29.90;52.50;;;;;;4995307;28;92055;-59
2023/08/19 08:11:01;;;;;;;4.40;3.00;;;29.90;52.50;;;;;;4995984;28;91383;-59
2023/08/19 08:13:30;;;;;;;3.87;2.90;;;29.90;52.40;;;;;;4995736;28;93279;-59
2023/08/19 08:15:59;;;;;;;2.90;2.57;;;29.90;52.40;;;;;;4994920;28;93691;-59
2023/08/19 08:18:27;;;;;;;3.73;2.83;;;30.00;52.40;;;;;;4994619;28;92969;-59
2023/08/19 08:20:57;;;;;;;4.13;3.27;;;30.00;52.40;;;;;;4994901;28;92191;-59
2023/08/19 08:23:25;;;;;;;4.17;3.00;;;30.00;52.40;;;;;;4994458;28;92626;-59
2023/08/19 08:25:56;;;;;;;3.10;2.80;;;30.00;52.40;;;;;;4982649;28;92668;-59
2023/08/19 08:28:25;;;;;;;4.13;2.87;;;30.00;52.30;;;;;;4975320;28;92100;-59
2023/08/19 08:30:53;;;;;;;3.30;3.00;;;30.00;52.40;;;;;;4975204;28;92099;-59
2023/08/19 08:33:21;;;;;;;3.80;3.07;;;30.00;52.30;;;;;;4974996;28;91951;-59
2023/08/19 08:35:49;;;;;;;4.53;3.10;;;30.00;52.30;;;;;;4975422;28;93512;-59
2023/08/19 08:38:18;;;;;;;2.50;2.30;;;30.00;52.30;;;;;;4975225;28;92041;-59
2023/08/19 08:40:46;;;;;;;2.83;2.40;;;30.10;52.30;;;;;;4975208;28;92834;-59
2023/08/19 08:43:14;;;;;;;3.97;3.07;;;30.10;52.30;;;;;;4973119;28;94999;-59
2023/08/19 08:45:42;;;;;;;3.63;2.97;;;30.10;52.30;;;;;;4974525;28;94868;-59
2023/08/19 08:48:11;;;;;;;3.80;3.40;;;30.10;52.30;;;;;;4974759;28;92112;-59
2023/08/19 08:50:42;;;;;;;4.03;2.80;;;30.10;52.30;;;;;;4974987;28;92243;-59
2023/08/19 08:53:11;;;;;;;4.33;3.17;;;30.10;52.90;;;;;;4974448;28;93088;-59
2023/08/19 08:55:40;;;;;;;3.90;3.20;;;30.10;52.30;;;;;;4974528;28;92725;-59
2023/08/19 08:58:08;;;;;;;4.63;2.67;;;30.10;52.30;;;;;;4974097;28;92040;-59
2023/08/19 09:00:37;;;;;;;3.60;2.80;;;30.10;52.30;;;;;;4974889;28;91385;-59
2023/08/19 09:03:06;;;;;;;3.10;2.63;;;30.10;52.30;;;;;;4974452;28;93138;-59
2023/08/19 09:05:34;;;;;;;3.60;3.07;;;30.10;52.30;;;;;;4974850;28;92932;-59
2023/08/19 09:08:02;;;;;;;3.83;2.60;;;30.10;52.30;;;;;;4974924;28;93188;-59
2023/08/19 09:10:31;;;;;;;4.23;2.97;;;30.10;52.30;;;;;;4974866;28;92182;-59
2023/08/19 09:13:00;;;;;;;4.33;2.97;;;30.10;52.30;;;;;;4973790;28;93089;-59
2023/08/19 09:15:29;;;;;;;7.03;3.43;;;30.10;52.30;;;;;;4974184;28;92750;-59
2023/08/19 09:17:57;;;;;;;4.80;2.87;;;30.20;52.30;;;;;;4974172;28;92474;-60
2023/08/19 09:20:25;;;;;;;4.30;3.43;;;30.20;52.30;;;;;;4974307;28;92144;-59
2023/08/19 09:22:53;;;;;;;3.33;3.03;;;30.20;52.30;;;;;;4974386;28;93041;-59
2023/08/19 09:25:22;;;;;;;4.43;2.93;;;30.20;52.30;;;;;;4974688;28;94028;-59
2023/08/19 09:27:52;;;;;;;3.47;2.70;;;30.20;52.30;;;;;;4974295;28;92119;-59
2023/08/19 09:30:21;;;;;;;3.70;3.30;;;30.20;52.30;;;;;;4974827;28;92663;-59
2023/08/19 09:32:49;;;;;;;5.53;3.47;;;30.20;52.30;;;;;;4973293;28;93056;-59
2023/08/19 09:35:18;;;;;;;4.23;3.40;;;30.20;52.30;;;;;;4974147;28;94904;-59
2023/08/19 09:37:46;;;;;;;5.77;2.83;;;30.20;52.30;;;;;;4973901;28;92106;-59
2023/08/19 09:40:17;;;;;;;6.13;3.23;;;30.20;52.30;;;;;;4974048;28;92123;-59
2023/08/19 09:42:47;;;;;;;4.57;3.27;;;30.20;52.20;;;;;;4973544;28;93040;-59
2023/08/19 09:45:17;;;;;;;4.50;3.07;;;30.30;52.30;;;;;;4974029;28;92792;-59
2023/08/19 09:47:48;;;;;;;5.37;3.20;;;30.30;52.30;;;;;;4974519;28;92142;-59
2023/08/19 09:50:17;;;;;;;5.03;3.37;;;30.30;52.30;;;;;;4974636;28;91269;-59
2023/08/19 09:52:55;;;;;;;3.40;2.97;;;30.30;52.30;;;;;;4973001;28;92891;-59
2023/08/19 09:55:24;;;;;;;3.93;2.97;;;30.20;52.30;;;;;;4974160;28;92407;-59
2023/08/19 09:57:52;;;;;;;4.07;3.07;;;30.20;52.30;;;;;;4973467;28;92955;-59
2023/08/19 10:00:20;;;;;;;6.23;4.03;;;30.20;52.30;;;;;;4975311;28;92110;-59
2023/08/19 10:02:49;;;;;;;5.03;3.47;;;30.20;52.30;;;;;;4976881;28;93726;-59
2023/08/19 10:05:18;;;;;;;6.97;3.50;;;30.20;52.30;;;;;;4976500;28;93007;-59
2023/08/19 10:07:48;;;;;;;4.83;3.03;;;30.20;52.30;;;;;;4977950;28;92000;-59
2023/08/19 10:10:16;;;;;;;5.67;3.20;;;30.20;52.30;;;;;;4977543;28;92192;-59
2023/08/19 10:12:44;;;;;;;4.43;3.17;;;30.20;52.30;;;;;;4977405;28;93226;-59
2023/08/19 10:15:13;;;;;;;4.60;3.63;;;30.10;52.20;;;;;;4977789;28;93893;-59
2023/08/19 10:17:42;;;;;;;4.27;3.80;;;30.30;52.30;;;;;;4976746;28;92210;-59
2023/08/19 10:20:14;;;;;;;4.23;3.27;;;30.30;52.30;;;;;;4977440;28;92608;-59
2023/08/19 10:22:44;;;;;;;5.83;3.50;;;30.30;52.30;;;;;;4976301;28;93975;-59
2023/08/19 10:25:12;;;;;;;4.60;3.83;;;30.30;52.50;;;;;;4977250;28;94789;-59
2023/08/19 10:27:40;;;;;;;5.37;3.50;;;30.30;52.20;;;;;;4977642;28;91945;-59
2023/08/19 10:30:31;;;;;;;6.17;3.60;;;30.30;52.20;;;;;;4976456;28;92144;-59
2023/08/19 10:33:07;;;;;;;5.90;3.60;;;30.30;52.30;;;;;;4976785;28;94361;-59
2023/08/19 10:35:58;;;;;;;5.83;4.10;;;30.30;52.20;;;;;;4977049;28;93726;-59
2023/08/19 10:38:30;;;;;;;4.83;3.73;;;30.30;52.30;;;;;;4977359;28;92033;-59
2023/08/19 10:41:02;;;;;;;7.80;4.97;;;30.30;52.20;;;;;;4976653;28;91439;-59
2023/08/19 10:43:52;;;;;;;6.17;4.20;;;30.30;52.30;;;;;;4976497;28;93493;-59
2023/08/19 10:46:20;;;;;;;5.90;4.23;;;30.30;52.30;;;;;;4977234;28;92712;-59
2023/08/19 10:48:50;;;;;;;5.03;3.97;;;30.30;52.30;;;;;;4977014;28;92986;-59
2023/08/19 10:51:19;;;;;;;6.40;4.03;;;30.30;52.30;;;;;;4976535;28;92081;-59
2023/08/19 10:53:50;;;;;;;7.50;4.50;;;30.30;52.30;;;;;;4976890;28;93074;-59
2023/08/19 10:56:20;;;;;;;9.07;5.50;;;30.30;52.30;;;;;;4975482;28;93906;-59
2023/08/19 10:58:48;;;;;;;5.60;4.13;;;30.30;52.30;;;;;;4977364;28;92026;-59
2023/08/19 11:01:16;;;;;;;5.80;4.43;;;30.40;52.30;;;;;;4976062;28;92153;-59
2023/08/19 11:03:45;;;;;;;7.50;4.20;;;30.40;52.30;;;;;;4975544;28;92956;-59
2023/08/19 11:06:13;;;;;;;5.33;3.70;;;30.40;52.30;;;;;;4976423;28;93845;-59
2023/08/19 11:08:45;;;;;;;4.33;3.53;;;30.40;52.30;;;;;;4976081;28;92102;-60
2023/08/19 11:11:17;;;;;;;5.23;4.07;;;30.40;52.30;;;;;;4976139;28;92351;-60
2023/08/19 11:13:45;;;;;;;8.60;4.33;;;30.40;52.20;;;;;;4975715;28;94091;-59
2023/08/19 11:16:13;;;;;;;6.37;4.20;;;30.40;52.30;;;;;;4975851;28;93729;-59
2023/08/19 11:18:41;;;;;;;4.67;3.80;;;30.40;52.30;;;;;;4976416;28;92155;-59
2023/08/19 11:21:09;;;;;;;5.57;4.37;;;30.40;52.20;;;;;;4976206;28;92361;-59
2023/08/19 11:23:37;;;;;;;5.30;3.60;;;30.50;52.30;;;;;;4975710;28;93400;-59
2023/08/19 11:26:07;;;;;;;5.83;3.67;;;30.50;52.30;;;;;;4976108;28;93885;-59
2023/08/19 11:28:37;;;;;;;6.33;4.40;;;30.40;52.20;;;;;;4976191;28;93063;-59
2023/08/19 11:31:05;;;;;;;5.63;3.93;;;30.50;52.20;;;;;;4976162;28;91301;-59
2023/08/19 11:33:33;;;;;;;6.10;3.50;;;30.50;52.20;;;;;;4976023;28;93066;-59
2023/08/19 11:36:02;;;;;;;5.67;4.40;;;30.50;52.20;;;;;;4975677;28;92874;-59
2023/08/19 11:38:30;;;;;;;6.77;4.47;;;30.50;52.20;;;;;;4975783;28;92972;-59
2023/08/19 11:40:58;;;;;;;6.47;4.13;;;30.50;52.20;;;;;;4976213;28;92141;-59
2023/08/19 11:43:30;;;;;;;5.80;4.20;;;30.50;52.20;;;;;;4975551;28;93318;-59
2023/08/19 11:45:58;;;;;;;5.57;4.00;;;30.50;52.20;;;;;;4975964;28;93156;-59
2023/08/19 11:48:26;;;;;;;6.10;4.13;;;30.50;52.20;;;;;;4976373;28;91979;-59
2023/08/19 11:50:54;;;;;;;6.97;3.60;;;30.50;52.20;;;;;;4975284;28;92178;-59
2023/08/19 11:53:24;;;;;;;5.13;3.80;;;30.50;52.20;;;;;;4975667;28;93083;-59
2023/08/19 11:55:57;;;;;;;6.27;3.83;;;30.50;52.20;;;;;;4976045;28;93817;-59
2023/08/19 11:58:40;;;;;;;5.57;3.50;;;30.50;52.20;;;;;;4975878;28;92537;-59
2023/08/19 12:01:08;;;;;;;6.37;3.97;;;30.50;52.90;;;;;;4975710;28;93456;-59
2023/08/19 12:03:36;;;;;;;6.77;4.10;;;30.50;52.20;;;;;;4974546;28;94266;-59
2023/08/19 12:06:04;;;;;;;4.97;3.60;;;30.50;52.20;;;;;;4975404;28;93715;-59
2023/08/19 12:08:33;;;;;;;6.13;3.47;;;30.50;52.20;;;;;;4975320;28;92090;-59
2023/08/19 12:11:01;;;;;;;4.70;3.43;;;30.50;52.20;;;;;;4975636;28;92029;-59
2023/08/19 12:13:31;;;;;;;6.93;3.37;;;30.50;52.10;;;;;;4975464;28;92834;-59
2023/08/19 12:16:02;;;;;;;3.73;3.10;;;30.50;52.10;;;;;;4975245;28;92754;-59
2023/08/19 12:18:33;;;;;;;5.00;3.67;;;30.50;52.10;;;;;;4974955;28;92125;-59
2023/08/19 12:21:01;;;;;;;3.27;2.83;;;30.50;52.10;;;;;;4975496;28;91274;-59
2023/08/19 12:23:29;;;;;;;6.67;3.43;;;30.50;52.10;;;;;;4974585;28;92648;-59
2023/08/19 12:25:58;;;;;;;5.00;3.20;;;30.50;52.10;;;;;;4974774;28;93365;-59
2023/08/19 12:28:26;;;;;;;4.30;3.20;;;30.50;52.10;;;;;;4974972;28;93024;-59
2023/08/19 12:30:56;;;;;;;5.10;3.03;;;30.50;52.10;;;;;;4974977;28;92106;-59
2023/08/19 12:33:24;;;;;;;4.67;3.33;;;30.50;52.10;;;;;;4975047;28;93162;-59
2023/08/19 12:35:52;;;;;;;4.77;3.33;;;30.50;52.10;;;;;;4974661;28;92825;-59
2023/08/19 12:38:35;;;;;;;5.23;3.07;;;30.50;52.10;;;;;;4974762;28;92081;-59
2023/08/19 12:41:05;;;;;;;3.63;2.80;;;30.50;52.10;;;;;;4975173;28;92214;-59
2023/08/19 12:43:33;;;;;;;6.10;3.80;;;30.50;52.10;;;;;;4974819;28;93747;-59
2023/08/19 12:46:06;;;;;;;6.90;2.60;;;30.50;52.10;;;;;;4975760;28;92604;-59
2023/08/19 12:48:34;;;;;;;4.77;3.33;;;30.50;52.10;;;;;;4975301;28;92078;-59
2023/08/19 12:51:02;;;;;;;3.60;2.97;;;30.50;52.10;;;;;;4974012;28;92100;-59
2023/08/19 12:53:30;;;;;;;6.23;3.50;;;30.50;52.10;;;;;;4974489;28;93065;-60
2023/08/19 12:55:58;;;;;;;5.33;3.47;;;30.50;52.00;;;;;;4974426;28;94778;-59